Pagrindinis puslapis
METAR-TAF:

METAR-TAF

Oro uostai :

Chignik, Aliaska, Jungtinės Amerikos Valstijos

platuma: 56-18-41N, ilguma: 158-22-24W, Aukštis: 6 m

Dabartinis oras

Ataskaita buvo paskelbta 7 valandos ir 6 minutes, ne 20:59 UTC
Vėjas 6 kt iš Vakarų/Šiaurės Vakarų
Temperatūra -1°C
Drėgmė 69%
Slėgis 1020 hPa
Matomumas: 16.1 km
Su prošvaistėmis ne aukštis 2000 ft

METAR: PAJC 282059Z AUTO 30006KT 10SM BKN020 M01/M06 A3012 RMK AO2 SLP201 6//// T10111056 58000 FZRANO PNO $

Laikas: 19:05 (04:05 UTC)


TAF: trūkstamas

Orai ataskaitas ir orų prognozės (METAR, TAF).

turimą stotys yra geltonos ir raudonos taškus žemėlapyje.

Perkelti pele per norėdami pamatyti stoties vardą.

Tada spustelėkite, norėdami matyti oro stebėjimo ir prognozės.

Norėdami pakeisti žemėlapį: spustelėkite ant žalios mygtukų su juodo kryžiaus žemyn,; žalią mygtuką su brūkšneliu, jei norite nutolinti; arba žalių rodyklių gretimoms žemėlapius.


METAR-TAF: